Time;durP1;ratioP1;P1;durP2;ratioP2;P2;SDS_P1;SDS_P2;PMS_P1;PMS_P2;Temp;Humidity;BMP_temperature;BMP_pressure;BME280_temperature;BME280_humidity;BME280_pressure;Samples;Min_cycle;Max_cycle;Signal;HPM_P1;HPM_P2
2023/07/19 00:01:47;;;;;;;1.83;0.95;;;;;;;25.26;60.55;99379.97;4310624;33;20171;-96
2023/07/19 00:04:13;;;;;;;0.13;0.13;;;;;;;25.20;60.54;99379.75;4323277;33;20140;-96
2023/07/19 00:06:38;;;;;;;0.70;0.68;;;;;;;25.44;60.55;99374.66;4311523;33;20207;-96
2023/07/19 00:09:04;;;;;;;0.80;0.80;;;;;;;25.46;60.57;99364.69;4311102;33;20125;-96
2023/07/19 00:11:29;;;;;;;0.15;0.08;;;;;;;25.28;60.55;99356.69;4310691;33;20191;-96
2023/07/19 00:13:54;;;;;;;0.45;0.45;;;;;;;25.03;60.54;99344.13;4317359;33;99468;-96
2023/07/19 00:16:21;;;;;;;1.12;1.02;;;;;;;25.06;60.53;99351.81;4323025;33;20154;-96
2023/07/19 00:18:46;;;;;;;0.10;0.10;;;;;;;24.84;60.53;99342.38;4323070;33;20104;-96
2023/07/19 00:21:11;;;;;;;15.77;1.35;;;;;;;25.01;60.54;99349.59;4310777;33;20120;-96
2023/07/19 00:23:38;;;;;;;0.13;0.10;;;;;;;24.91;60.54;99350.63;4310561;33;20142;-95
2023/07/19 00:26:03;;;;;;;0.20;0.20;;;;;;;24.84;60.53;99333.56;4311997;33;20123;-96
2023/07/19 00:28:29;;;;;;;0.47;0.47;;;;;;;24.59;60.51;99324.47;4312288;33;20095;-96
2023/07/19 00:31:03;;;;;;;0.32;0.32;;;;;;;24.58;60.51;99314.81;4312239;33;20225;-96
2023/07/19 00:33:29;;;;;;;0.30;0.20;;;;;;;24.91;60.54;99310.69;4311298;33;20108;-96
2023/07/19 00:35:55;;;;;;;0.00;0.00;;;;;;;24.87;60.53;99315.50;4323106;33;20107;-96
2023/07/19 00:38:21;;;;;;;0.50;0.47;;;;;;;24.73;60.52;99322.16;4310696;33;20098;-96
2023/07/19 00:40:47;;;;;;;1.55;1.02;;;;;;;24.90;60.52;99325.00;4311199;33;20068;-96
2023/07/19 00:43:13;;;;;;;0.65;0.65;;;;;;;24.69;60.52;99318.13;4323221;33;20135;-96
2023/07/19 00:45:52;;;;;;;0.00;0.00;;;;;;;24.56;60.52;99309.63;4334672;33;20119;-96
2023/07/19 00:48:17;;;;;;;1.17;1.05;;;;;;;24.49;60.51;99308.56;4311499;33;20084;-96
2023/07/19 00:50:43;;;;;;;0.00;0.00;;;;;;;24.11;60.48;99307.72;4311165;33;20091;-96
2023/07/19 00:53:10;;;;;;;0.73;0.65;;;;;;;24.09;60.49;99320.31;4311896;33;20434;-96
2023/07/19 00:55:35;;;;;;;0.52;0.37;;;;;;;24.18;60.50;99318.62;4324467;33;20119;-96
2023/07/19 00:58:01;;;;;;;0.10;0.10;;;;;;;24.16;60.49;99294.00;4324777;33;20154;-96
2023/07/19 01:00:26;;;;;;;0.15;0.15;;;;;;;24.16;60.49;99299.31;4321692;33;20068;-96
2023/07/19 01:02:52;;;;;;;0.70;0.28;;;;;;;24.35;60.49;99287.78;4320961;33;20138;-96
2023/07/19 01:05:18;;;;;;;0.37;0.30;;;;;;;24.32;60.50;99277.44;4322992;33;20103;-96
2023/07/19 01:07:44;;;;;;;0.30;0.30;;;;;;;23.99;60.49;99286.78;4311017;33;20121;-96
2023/07/19 01:10:09;;;;;;;1.80;0.43;;;;;;;24.06;60.49;99288.72;4335013;33;20351;-96
2023/07/19 01:12:35;;;;;;;0.10;0.10;;;;;;;24.13;60.49;99300.47;4322786;33;20147;-96
2023/07/19 01:15:01;;;;;;;2.37;0.95;;;;;;;24.00;60.48;99302.59;4310814;33;20151;-96
2023/07/19 01:17:26;;;;;;;0.00;0.00;;;;;;;24.01;60.48;99304.28;4310615;33;20095;-96
2023/07/19 01:19:51;;;;;;;0.00;0.00;;;;;;;23.95;60.48;99312.00;4322553;33;20092;-96
2023/07/19 01:22:17;;;;;;;0.50;0.20;;;;;;;23.90;60.48;99317.75;4324826;33;20175;-96
2023/07/19 01:24:43;;;;;;;0.00;0.00;;;;;;;23.85;60.48;99312.00;4310456;33;20107;-96
2023/07/19 01:27:08;;;;;;;0.10;0.10;;;;;;;23.89;60.47;99305.41;4322330;33;20125;-96
2023/07/19 01:29:35;;;;;;;0.57;0.57;;;;;;;24.01;60.49;99290.97;4310685;33;20414;-96
2023/07/19 01:32:00;;;;;;;0.15;0.15;;;;;;;24.05;60.50;99300.34;4311270;33;20135;-96
2023/07/19 01:34:27;;;;;;;3.55;0.90;;;;;;;24.09;60.48;99296.41;4335464;33;20107;-96
2023/07/19 01:36:53;;;;;;;0.00;0.00;;;;;;;23.94;60.48;99294.38;4310509;33;20165;-96
2023/07/19 01:39:18;;;;;;;0.00;0.00;;;;;;;24.00;60.49;99291.13;4310443;33;20146;-96
2023/07/19 01:41:44;;;;;;;0.15;0.15;;;;;;;23.96;60.47;99287.94;4311277;33;20123;-96
2023/07/19 01:44:09;;;;;;;1.10;1.00;;;;;;;24.00;60.49;99283.97;4310337;33;20131;-96
2023/07/19 01:46:38;;;;;;;0.00;0.00;;;;;;;24.15;60.49;99282.53;4310501;33;20131;-96
2023/07/19 01:49:03;;;;;;;1.25;0.37;;;;;;;24.17;60.49;99285.03;4310587;33;20076;-96
2023/07/19 01:51:29;;;;;;;7.97;0.90;;;;;;;24.19;60.49;99283.91;4310366;33;20151;-96
2023/07/19 01:53:54;;;;;;;1.35;0.65;;;;;;;24.15;60.49;99277.22;4322606;33;20165;-96
2023/07/19 01:56:20;;;;;;;5.25;0.88;;;;;;;24.24;60.50;99288.78;4310350;33;20103;-96
2023/07/19 01:58:45;;;;;;;2.37;1.00;;;;;;;24.16;60.49;99286.88;4310276;33;20160;-96
2023/07/19 02:01:11;;;;;;;0.00;0.00;;;;;;;24.08;60.49;99286.75;4310299;33;20143;-96
2023/07/19 02:03:36;;;;;;;0.00;0.00;;;;;;;24.01;60.48;99285.66;4311280;33;20163;-96
2023/07/19 02:06:02;;;;;;;2.33;1.45;;;;;;;23.88;60.47;99280.66;4311079;33;20151;-96
2023/07/19 02:08:29;;;;;;;0.00;0.00;;;;;;;23.76;60.47;99291.63;4334710;33;20163;-95
2023/07/19 02:10:54;;;;;;;2.95;0.55;;;;;;;23.62;60.46;99300.03;4310552;33;20104;-96
2023/07/19 02:13:20;;;;;;;0.20;0.20;;;;;;;23.86;60.47;99297.72;4310469;33;20141;-96
2023/07/19 02:15:45;;;;;;;0.08;0.08;;;;;;;23.43;60.46;99303.56;4310274;33;20130;-96
2023/07/19 02:18:11;;;;;;;0.03;0.03;;;;;;;23.32;60.45;99299.22;4310118;33;20138;-95
2023/07/19 02:20:36;;;;;;;2.83;0.32;;;;;;;23.58;60.46;99304.78;4310402;33;20135;-96
2023/07/19 02:23:02;;;;;;;0.10;0.10;;;;;;;23.63;60.46;99301.72;4310675;33;20390;-96
2023/07/19 02:25:29;;;;;;;0.60;0.60;;;;;;;23.77;60.47;99318.06;4323447;33;20480;-96
2023/07/19 02:27:55;;;;;;;1.08;0.98;;;;;;;23.83;60.48;99324.59;4312040;33;20516;-96
2023/07/19 02:30:20;;;;;;;0.22;0.22;;;;;;;23.47;60.45;99327.03;4323394;33;20112;-96
2023/07/19 02:32:46;;;;;;;0.00;0.00;;;;;;;23.17;60.44;99321.84;4332254;33;20141;-96
2023/07/19 02:35:11;;;;;;;0.35;0.35;;;;;;;23.40;60.45;99319.75;4310492;33;20099;-96
2023/07/19 02:37:37;;;;;;;1.35;1.25;;;;;;;23.61;60.47;99320.44;4312509;33;20089;-96
2023/07/19 02:40:03;;;;;;;0.17;0.17;;;;;;;23.67;60.47;99319.06;4322050;33;20135;-96
2023/07/19 02:42:28;;;;;;;0.20;0.10;;;;;;;23.35;60.46;99314.84;4309993;33;20167;-96
2023/07/19 02:44:53;;;;;;;0.73;0.73;;;;;;;23.25;60.44;99309.56;4309706;33;20150;-96
2023/07/19 02:47:19;;;;;;;0.10;0.10;;;;;;;23.28;60.45;99311.94;4322179;33;20638;-96
2023/07/19 02:49:44;;;;;;;4.82;1.20;;;;;;;23.24;60.44;99305.22;4309659;33;20107;-96
2023/07/19 02:52:10;;;;;;;0.52;0.52;;;;;;;23.24;60.44;99313.19;4309932;33;20170;-96
2023/07/19 02:54:35;;;;;;;0.75;0.55;;;;;;;22.99;60.43;99320.88;4321730;33;20103;-96
2023/07/19 02:57:02;;;;;;;0.30;0.30;;;;;;;22.99;60.43;99319.06;4309871;33;20386;-96
2023/07/19 02:59:27;;;;;;;0.00;0.00;;;;;;;23.19;60.45;99309.28;4312013;33;20097;-96
2023/07/19 03:01:53;;;;;;;0.40;0.30;;;;;;;22.90;60.42;99299.47;4309651;33;20469;-96
2023/07/19 03:04:18;;;;;;;0.00;0.00;;;;;;;23.07;60.43;99292.66;4309683;33;20369;-95
2023/07/19 03:06:44;;;;;;;2.78;0.35;;;;;;;23.26;60.43;99289.16;4309665;33;20146;-96
2023/07/19 03:09:11;;;;;;;0.13;0.10;;;;;;;23.28;60.45;99298.66;4321403;33;20137;-96
2023/07/19 03:11:36;;;;;;;0.28;0.28;;;;;;;23.21;60.44;99296.72;4321966;33;20141;-96
2023/07/19 03:14:02;;;;;;;0.60;0.60;;;;;;;23.06;60.43;99295.44;4309465;33;20123;-96
2023/07/19 03:16:27;;;;;;;0.80;0.80;;;;;;;23.23;60.44;99302.72;4309960;33;20104;-96
2023/07/19 03:18:52;;;;;;;0.05;0.05;;;;;;;23.43;60.46;99307.03;4311790;33;20109;-96
2023/07/19 03:21:20;;;;;;;1.27;1.17;;;;;;;23.15;60.43;99305.22;4309538;33;20158;-96
2023/07/19 03:23:45;;;;;;;0.80;0.52;;;;;;;23.26;60.43;99299.78;4322282;33;20099;-95
2023/07/19 03:26:11;;;;;;;0.00;0.00;;;;;;;23.43;60.45;99300.91;4309539;33;20119;-95
2023/07/19 03:28:36;;;;;;;0.10;0.10;;;;;;;23.48;60.45;99298.66;4309105;33;20112;-96
2023/07/19 03:31:02;;;;;;;0.40;0.37;;;;;;;23.38;60.45;99303.09;4309414;33;20137;-95
2023/07/19 03:33:27;;;;;;;0.05;0.05;;;;;;;23.47;60.45;99295.16;4309937;33;20139;-96
2023/07/19 03:35:53;;;;;;;0.10;0.10;;;;;;;23.45;60.45;99297.13;4321939;33;20391;-96
2023/07/19 03:38:19;;;;;;;0.10;0.10;;;;;;;23.36;60.45;99295.28;4309533;33;20138;-96
2023/07/19 03:40:44;;;;;;;1.45;0.20;;;;;;;23.48;60.45;99293.34;4310584;33;20111;-96
2023/07/19 03:43:10;;;;;;;0.73;0.40;;;;;;;23.37;60.45;99296.97;4311699;33;20162;-96
2023/07/19 03:45:35;;;;;;;0.05;0.05;;;;;;;23.18;60.43;99286.34;4312568;33;20139;-96
2023/07/19 03:48:00;;;;;;;0.00;0.00;;;;;;;23.30;60.44;99287.88;4312991;33;20108;-95
2023/07/19 03:50:26;;;;;;;0.00;0.00;;;;;;;23.36;60.45;99289.97;4315876;33;20075;-96
2023/07/19 03:52:51;;;;;;;0.30;0.30;;;;;;;23.47;60.45;99296.97;4322625;33;20178;-96
2023/07/19 03:55:17;;;;;;;0.60;0.43;;;;;;;23.52;60.45;99292.06;4315245;33;20158;-96
2023/07/19 03:57:42;;;;;;;1.52;0.98;;;;;;;23.22;60.44;99290.41;4311077;33;20116;-95
2023/07/19 04:00:09;;;;;;;0.00;0.00;;;;;;;23.31;60.45;99292.22;4316775;33;20117;-96
2023/07/19 04:02:34;;;;;;;0.00;0.00;;;;;;;23.36;60.45;99297.94;4322372;33;20075;-96
2023/07/19 04:05:00;;;;;;;0.20;0.20;;;;;;;23.40;60.45;99304.62;4313535;33;20358;-96
2023/07/19 04:07:26;;;;;;;0.05;0.05;;;;;;;23.46;60.45;99306.75;4309109;33;20119;-96
2023/07/19 04:09:52;;;;;;;0.40;0.22;;;;;;;23.43;60.46;99304.38;4308725;33;20115;-95
2023/07/19 04:12:18;;;;;;;0.00;0.00;;;;;;;23.33;60.44;99292.06;4308624;33;20091;-96
2023/07/19 04:14:43;;;;;;;0.60;0.50;;;;;;;23.49;60.45;99300.31;4311025;33;20121;-96
2023/07/19 04:17:10;;;;;;;0.00;0.00;;;;;;;23.57;60.46;99303.97;4308524;33;20441;-96
2023/07/19 04:19:35;;;;;;;2.72;1.37;;;;;;;23.56;60.46;99307.59;4309310;33;20099;-95
2023/07/19 04:22:01;;;;;;;0.00;0.00;;;;;;;23.65;60.46;99316.53;4323153;33;20111;-96
2023/07/19 04:24:26;;;;;;;0.50;0.50;;;;;;;23.82;60.48;99321.09;4310952;33;20100;-94
2023/07/19 04:26:52;;;;;;;0.90;0.88;;;;;;;23.94;60.48;99316.47;4322958;33;20111;-96
2023/07/19 04:29:19;;;;;;;0.77;0.77;;;;;;;24.05;60.49;99308.31;4323226;33;20165;-96
2023/07/19 04:31:45;;;;;;;0.08;0.08;;;;;;;24.10;60.48;99311.38;4311190;33;20477;-96
2023/07/19 04:34:10;;;;;;;0.47;0.40;;;;;;;24.23;60.49;99320.84;4310748;33;20204;-96
2023/07/19 04:36:36;;;;;;;0.55;0.17;;;;;;;24.38;60.50;99320.25;4322855;33;23135;-96
2023/07/19 04:39:01;;;;;;;0.20;0.20;;;;;;;24.52;60.51;99316.25;4311681;33;20135;-96
2023/07/19 04:41:26;;;;;;;0.47;0.40;;;;;;;24.68;60.51;99318.28;4322658;33;20095;-96
2023/07/19 04:43:52;;;;;;;0.52;0.52;;;;;;;24.69;60.52;99322.63;4322660;33;20506;-95
2023/07/19 04:46:18;;;;;;;0.30;0.30;;;;;;;24.74;60.51;99318.50;4310529;33;20159;-95
2023/07/19 04:48:44;;;;;;;3.15;0.73;;;;;;;24.87;60.52;99322.66;4310617;33;20177;-96
2023/07/19 04:51:09;;;;;;;0.10;0.10;;;;;;;25.07;60.54;99322.37;4310745;33;20447;-95
2023/07/19 04:53:35;;;;;;;0.70;0.37;;;;;;;25.12;60.53;99311.28;4310748;33;20567;-96
2023/07/19 04:56:00;;;;;;;2.35;1.25;;;;;;;25.31;60.55;99316.41;4313047;33;20143;-96
2023/07/19 04:58:26;;;;;;;0.50;0.50;;;;;;;25.35;60.55;99322.31;4323361;33;20458;-95
2023/07/19 05:00:51;;;;;;;1.08;0.98;;;;;;;25.62;60.57;99318.69;4310437;33;20166;-95
2023/07/19 05:03:17;;;;;;;0.20;0.20;;;;;;;25.74;60.57;99314.78;4323354;33;20092;-95
2023/07/19 05:05:42;;;;;;;0.30;0.30;;;;;;;25.65;60.57;99311.22;4310838;33;20108;-96
2023/07/19 05:08:08;;;;;;;0.68;0.68;;;;;;;26.02;60.57;99304.78;4310532;33;20134;-96
2023/07/19 05:10:37;;;;;;;0.22;0.20;;;;;;;25.92;60.58;99306.75;4310298;33;20131;-96
2023/07/19 05:13:04;;;;;;;0.00;0.00;;;;;;;25.87;60.58;99304.56;4310630;33;20122;-95
2023/07/19 05:15:29;;;;;;;0.00;0.00;;;;;;;26.18;60.59;99309.38;4310430;33;20115;-95
2023/07/19 05:17:55;;;;;;;0.00;0.00;;;;;;;26.44;60.61;99307.53;4311456;33;20107;-95
2023/07/19 05:20:20;;;;;;;0.40;0.40;;;;;;;26.44;60.61;99310.19;4310904;33;20460;-96
2023/07/19 05:22:45;;;;;;;0.65;0.65;;;;;;;26.61;60.61;99301.25;4335892;33;20223;-96
2023/07/19 05:25:11;;;;;;;0.70;0.45;;;;;;;26.69;60.61;99288.91;4311258;33;20175;-96
2023/07/19 05:27:36;;;;;;;1.25;1.17;;;;;;;26.72;60.61;99288.59;4311384;33;20155;-96
2023/07/19 05:30:04;;;;;;;0.17;0.17;;;;;;;26.73;60.62;99292.94;4312852;33;20099;-95
2023/07/19 05:32:29;;;;;;;0.17;0.17;;;;;;;26.73;60.62;99298.25;4324229;33;20068;-96
2023/07/19 05:34:55;;;;;;;0.10;0.10;;;;;;;26.91;60.63;99302.50;4320660;33;20193;-95
2023/07/19 05:37:20;;;;;;;0.32;0.32;;;;;;;27.14;60.64;99296.53;4310921;33;20083;-95
2023/07/19 05:39:47;;;;;;;0.13;0.13;;;;;;;27.22;60.64;99299.25;4310343;33;20378;-96
2023/07/19 05:42:12;;;;;;;0.70;0.70;;;;;;;27.30;60.65;99295.72;4322896;33;20142;-95
2023/07/19 05:44:38;;;;;;;0.00;0.00;;;;;;;27.36;60.65;99295.03;4310452;33;20175;-96
2023/07/19 05:47:03;;;;;;;0.00;0.00;;;;;;;27.26;60.64;99302.41;4310031;33;20138;-96
2023/07/19 05:49:29;;;;;;;0.82;0.55;;;;;;;27.23;60.65;99308.91;4310065;33;20095;-96
2023/07/19 05:51:55;;;;;;;0.30;0.30;;;;;;;27.39;60.65;99324.09;4312561;33;20095;-96
2023/07/19 05:54:21;;;;;;;2.83;0.75;;;;;;;27.43;60.65;99322.75;4309985;33;20116;-96
2023/07/19 05:56:47;;;;;;;0.40;0.30;;;;;;;27.42;60.65;99318.41;4322406;33;20123;-95
2023/07/19 05:59:13;;;;;;;0.50;0.50;;;;;;;27.43;60.65;99331.63;4322229;33;20390;-96
2023/07/19 06:01:38;;;;;;;0.10;0.10;;;;;;;27.53;60.66;99326.97;4310049;33;20107;-96
2023/07/19 06:04:05;;;;;;;0.20;0.20;;;;;;;27.40;60.65;99326.62;4309940;33;20115;-96
2023/07/19 06:06:33;;;;;;;0.75;0.75;;;;;;;27.67;60.67;99320.09;4334747;33;20116;-96
2023/07/19 06:09:01;;;;;;;2.85;0.60;;;;;;;27.57;60.66;99323.94;4310586;33;20099;-96
2023/07/19 06:11:27;;;;;;;0.13;0.10;;;;;;;27.74;60.67;99322.97;4310096;33;20111;-96
2023/07/19 06:13:53;;;;;;;0.50;0.50;;;;;;;27.75;60.67;99329.97;4312011;33;20107;-95
2023/07/19 06:16:18;;;;;;;0.00;0.00;;;;;;;27.52;60.67;99329.81;4310185;33;20063;-96
2023/07/19 06:18:44;;;;;;;0.10;0.10;;;;;;;27.86;60.68;99329.63;4321908;33;20183;-96
2023/07/19 06:21:09;;;;;;;3.83;1.95;;;;;;;27.89;60.67;99329.28;4309722;33;20144;-96
2023/07/19 06:23:34;;;;;;;0.47;0.47;;;;;;;27.94;60.68;99316.25;4309877;33;20169;-96
2023/07/19 06:26:00;;;;;;;0.10;0.10;;;;;;;27.99;60.68;99319.25;4309741;33;20131;-96
2023/07/19 06:28:25;;;;;;;0.00;0.00;;;;;;;28.10;60.69;99328.72;4321794;33;20164;-96
2023/07/19 06:30:51;;;;;;;0.65;0.45;;;;;;;28.33;60.70;99327.00;4309802;33;20091;-96
2023/07/19 06:33:16;;;;;;;0.25;0.25;;;;;;;28.52;60.71;99319.59;4310239;33;20159;-96
2023/07/19 06:35:42;;;;;;;0.00;0.00;;;;;;;28.76;60.71;99314.09;4310704;33;20131;-96
2023/07/19 06:38:08;;;;;;;0.77;0.77;;;;;;;28.95;60.73;99305.66;4310364;33;20128;-96
2023/07/19 06:40:33;;;;;;;1.10;0.95;;;;;;;29.18;60.75;99302.97;4323077;33;20119;-96
2023/07/19 06:42:59;;;;;;;0.80;0.70;;;;;;;29.25;60.76;99297.72;4310579;33;20141;-96
2023/07/19 06:45:24;;;;;;;1.17;1.08;;;;;;;29.45;60.76;99293.56;4336502;33;20095;-95
2023/07/19 06:47:50;;;;;;;0.90;0.90;;;;;;;29.45;60.76;99288.19;4313332;33;20103;-95
2023/07/19 06:50:15;;;;;;;0.00;0.00;;;;;;;29.58;60.77;99292.97;4308893;33;20681;-95
2023/07/19 06:52:40;;;;;;;0.60;0.60;;;;;;;29.85;60.77;99299.56;4309521;33;20168;-96
2023/07/19 06:55:06;;;;;;;0.20;0.20;;;;;;;29.98;60.78;99305.09;4308992;33;24806;-94
2023/07/19 06:57:32;;;;;;;0.52;0.52;;;;;;;29.81;60.78;99303.59;4322033;33;20153;-94
2023/07/19 06:59:58;;;;;;;1.48;0.30;;;;;;;29.89;60.79;99299.00;4310211;33;20122;-93
2023/07/19 07:02:23;;;;;;;0.65;0.65;;;;;;;30.03;60.78;99289.31;4319486;33;20068;-94
2023/07/19 07:04:50;;;;;;;1.25;0.47;;;;;;;29.87;60.78;99276.91;4321800;33;20155;-93
2023/07/19 07:07:19;;;;;;;1.85;1.15;;;;;;;30.15;60.80;99281.66;4323320;33;20161;-93
2023/07/19 07:09:45;;;;;;;0.08;0.08;;;;;;;30.19;60.79;99280.25;4309506;33;20122;-92
2023/07/19 07:12:10;;;;;;;0.55;0.52;;;;;;;30.48;60.81;99279.38;4308405;33;20128;-93
2023/07/19 07:14:36;;;;;;;0.77;0.50;;;;;;;30.56;60.81;99276.59;4308923;33;20123;-92
2023/07/19 07:17:02;;;;;;;0.20;0.20;;;;;;;30.88;60.83;99264.56;4321498;33;20155;-92
2023/07/19 07:19:28;;;;;;;1.20;0.95;;;;;;;30.84;60.82;99272.19;4333418;33;20260;-92
2023/07/19 07:21:54;;;;;;;0.45;0.45;;;;;;;31.03;60.84;99269.87;4308143;33;20201;-92
2023/07/19 07:24:20;;;;;;;8.77;0.65;;;;;;;30.96;60.83;99285.94;4319637;33;28512;-92
2023/07/19 07:26:45;;;;;;;0.30;0.30;;;;;;;31.22;60.84;99287.22;4308029;33;20434;-92
2023/07/19 07:29:10;;;;;;;3.00;0.60;;;;;;;31.35;60.86;99280.12;4310426;33;20377;-91
2023/07/19 07:31:36;;;;;;;0.47;0.20;;;;;;;31.35;60.85;99290.88;4307650;33;20151;-92
2023/07/19 07:34:01;;;;;;;0.22;0.20;;;;;;;31.28;60.85;99286.50;4307865;33;20473;-91
2023/07/19 07:36:26;;;;;;;0.68;0.55;;;;;;;31.35;60.85;99284.69;4319556;33;25157;-90
2023/07/19 07:38:52;;;;;;;0.10;0.10;;;;;;;31.32;60.86;99293.13;4307361;33;29589;-91
2023/07/19 07:41:17;;;;;;;0.00;0.00;;;;;;;31.41;60.86;99286.59;4319431;33;27703;-90
2023/07/19 07:43:43;;;;;;;0.75;0.75;;;;;;;31.39;60.85;99285.94;4307396;33;20962;-90
2023/07/19 07:46:08;;;;;;;0.03;0.03;;;;;;;31.37;60.85;99291.53;4332277;33;20130;-89
2023/07/19 07:48:33;;;;;;;0.50;0.50;;;;;;;31.04;60.84;99291.19;4332070;33;22904;-89
2023/07/19 07:51:00;;;;;;;1.85;1.45;;;;;;;30.77;60.83;99297.31;4332999;33;27581;-89
2023/07/19 07:53:25;;;;;;;11.18;0.65;;;;;;;30.82;60.83;99293.03;4320873;33;20129;-89
2023/07/19 07:55:51;;;;;;;0.10;0.10;;;;;;;30.91;60.83;99288.38;4335259;33;20389;-89
2023/07/19 07:58:16;;;;;;;0.00;0.00;;;;;;;31.08;60.85;99303.22;4321930;33;20138;-89
2023/07/19 08:00:42;;;;;;;0.28;0.28;;;;;;;30.88;60.84;99301.34;4321887;33;20112;-89
2023/07/19 08:03:08;;;;;;;0.80;0.75;;;;;;;30.98;60.83;99296.50;4334068;33;20170;-89
2023/07/19 08:05:34;;;;;;;1.40;1.30;;;;;;;30.98;60.84;99288.41;4321739;33;20099;-88
2023/07/19 08:07:59;;;;;;;0.40;0.40;;;;;;;30.95;60.84;99286.94;4335264;33;20456;-88
2023/07/19 08:10:25;;;;;;;0.10;0.10;;;;;;;31.15;60.84;99281.78;4333783;33;20104;-87
2023/07/19 08:12:50;;;;;;;2.17;0.57;;;;;;;31.18;60.85;99281.41;4335248;33;20183;-87
2023/07/19 08:15:16;;;;;;;0.37;0.20;;;;;;;31.30;60.85;99279.06;4334858;33;27225;-87
2023/07/19 08:17:41;;;;;;;0.70;0.70;;;;;;;31.29;60.86;99275.53;4321898;33;20084;-87
2023/07/19 08:20:09;;;;;;;0.80;0.77;;;;;;;31.05;60.84;99271.34;4335419;33;20130;-87
2023/07/19 08:22:35;;;;;;;10.55;0.88;;;;;;;30.97;60.84;99273.31;4335954;33;20095;-87
2023/07/19 08:25:00;;;;;;;0.37;0.20;;;;;;;30.96;60.84;99261.72;4324035;33;20087;-87
2023/07/19 08:27:26;;;;;;;0.00;0.00;;;;;;;30.89;60.83;99268.09;4321742;33;20163;-88
2023/07/19 08:29:52;;;;;;;1.65;0.95;;;;;;;30.55;60.82;99277.63;4334935;33;20127;-87
2023/07/19 08:32:17;;;;;;;4.65;1.48;;;;;;;30.82;60.83;99276.09;4337498;33;20079;-86
2023/07/19 08:34:43;;;;;;;1.10;0.85;;;;;;;30.91;60.83;99274.09;4320427;33;20461;-87
2023/07/19 08:37:09;;;;;;;0.35;0.35;;;;;;;30.98;60.84;99270.44;4321767;33;20117;-88
2023/07/19 08:39:34;;;;;;;0.45;0.45;;;;;;;31.23;60.85;99267.38;4309359;33;20183;-87
2023/07/19 08:42:03;;;;;;;0.73;0.73;;;;;;;31.60;60.87;99277.00;4321423;33;20167;-88
2023/07/19 08:44:28;;;;;;;0.97;0.87;;;;;;;31.96;60.89;99285.78;4335384;33;20095;-88
2023/07/19 08:46:54;;;;;;;0.37;0.37;;;;;;;31.98;60.89;99277.50;4333352;33;21459;-88
2023/07/19 08:49:20;;;;;;;0.00;0.00;;;;;;;32.13;60.90;99280.06;4321477;33;20393;-88
2023/07/19 08:51:45;;;;;;;0.17;0.17;;;;;;;32.10;60.89;99286.69;4321513;33;20175;-88
2023/07/19 08:54:11;;;;;;;1.62;0.90;;;;;;;32.25;60.90;99289.25;4321489;33;20092;-90
2023/07/19 08:56:37;;;;;;;0.10;0.10;;;;;;;32.39;60.91;99285.59;4309213;33;20091;-89
2023/07/19 08:59:03;;;;;;;0.75;0.75;;;;;;;32.67;60.91;99277.44;4321494;33;20544;-90
2023/07/19 09:01:28;;;;;;;2.45;1.50;;;;;;;32.79;60.93;99288.44;4333697;33;20158;-89
2023/07/19 09:03:54;;;;;;;0.28;0.20;;;;;;;32.90;60.93;99287.91;4309183;33;20099;-90
2023/07/19 09:06:28;;;;;;;0.10;0.10;;;;;;;32.98;60.94;99290.41;4320381;33;20180;-90
2023/07/19 09:08:55;;;;;;;0.43;0.43;;;;;;;33.25;60.95;99280.47;4321315;33;20123;-90
2023/07/19 09:11:22;;;;;;;10.13;0.52;;;;;;;33.35;60.96;99285.47;4333492;33;20111;-90
2023/07/19 09:13:54;;;;;;;0.10;0.10;;;;;;;33.43;60.96;99279.88;4333595;33;20175;-90
2023/07/19 09:16:29;;;;;;;3.25;0.85;;;;;;;33.55;60.96;99270.94;4321350;33;20083;-90
2023/07/19 09:18:56;;;;;;;0.35;0.35;;;;;;;33.57;60.97;99278.81;4334659;33;20103;-90
2023/07/19 09:21:44;;;;;;;0.37;0.37;;;;;;;33.62;60.97;99278.22;4309149;33;20111;-90
2023/07/19 09:24:10;;;;;;;4.12;1.37;;;;;;;33.51;60.96;99275.09;4333916;33;20096;-91
2023/07/19 09:26:52;;;;;;;30.45;1.42;;;;;;;33.41;60.97;99273.88;4309920;33;20150;-90
2023/07/19 09:29:21;;;;;;;0.90;0.90;;;;;;;33.15;60.94;99274.66;4321913;33;20111;-90
2023/07/19 09:31:53;;;;;;;0.22;0.22;;;;;;;33.09;60.95;99275.47;4321384;33;20146;-91
2023/07/19 09:34:21;;;;;;;0.15;0.15;;;;;;;33.12;60.95;99277.75;4334794;33;20104;-90
2023/07/19 09:36:48;;;;;;;0.20;0.10;;;;;;;33.07;60.94;99272.13;4321364;33;20492;-90
2023/07/19 09:39:14;;;;;;;0.50;0.50;;;;;;;33.08;60.95;99269.25;4321458;33;20130;-90
2023/07/19 09:41:39;;;;;;;0.75;0.32;;;;;;;32.97;60.94;99273.38;4333502;33;20099;-91
2023/07/19 09:44:09;;;;;;;1.40;0.95;;;;;;;33.03;60.95;99274.41;4333235;33;20433;-91
2023/07/19 09:46:34;;;;;;;;;;;;;;;32.92;60.95;99269.66;4321980;33;20096;-90
2023/07/19 09:49:00;;;;;;;0.17;0.17;;;;;;;33.31;60.95;99266.12;4333677;33;19983;-90
2023/07/19 09:51:25;;;;;;;0.00;0.00;;;;;;;33.34;60.96;99270.31;4334434;33;21506;-91
2023/07/19 09:53:53;;;;;;;5.95;1.85;;;;;;;33.32;60.96;99275.09;4309747;33;20108;-91
2023/07/19 09:56:18;;;;;;;0.73;0.57;;;;;;;33.09;60.95;99273.59;4335261;33;20087;-90
2023/07/19 09:58:44;;;;;;;0.10;0.10;;;;;;;33.30;60.96;99271.75;4334024;33;20099;-91
2023/07/19 10:01:09;;;;;;;1.48;0.82;;;;;;;33.37;60.96;99269.94;4323143;33;20126;-91
2023/07/19 10:03:37;;;;;;;2.55;0.32;;;;;;;33.42;60.96;99262.88;4324525;33;20095;-90
2023/07/19 10:06:03;;;;;;;0.50;0.50;;;;;;;33.56;60.96;99263.66;4345225;33;20346;-91
2023/07/19 10:08:29;;;;;;;2.85;0.47;;;;;;;33.62;60.97;99260.16;4335088;33;20110;-91
2023/07/19 10:10:56;;;;;;;0.47;0.47;;;;;;;33.64;60.98;99255.38;4334486;33;20125;-91
2023/07/19 10:13:30;;;;;;;0.20;0.20;;;;;;;33.63;60.97;99256.41;4321074;33;20563;-91
2023/07/19 10:15:56;;;;;;;0.20;0.20;;;;;;;33.56;60.96;99253.69;4321122;33;20087;-91
2023/07/19 10:18:21;;;;;;;0.30;0.30;;;;;;;33.68;60.97;99243.12;4320848;33;20417;-91
2023/07/19 10:21:02;;;;;;;0.40;0.40;;;;;;;33.83;60.98;99250.94;4333459;33;32562;-91
2023/07/19 10:23:30;;;;;;;1.75;0.45;;;;;;;33.84;60.98;99239.19;4320835;33;20087;-91
2023/07/19 10:25:55;;;;;;;0.98;0.95;;;;;;;33.85;60.98;99248.94;4308938;33;20122;-91
2023/07/19 10:28:26;;;;;;;0.10;0.08;;;;;;;33.63;60.97;99234.00;4332774;33;20125;-91
2023/07/19 10:30:52;;;;;;;0.62;0.62;;;;;;;33.68;60.97;99229.63;4320773;33;20112;-91
2023/07/19 10:33:31;;;;;;;0.30;0.20;;;;;;;33.73;60.99;99229.81;4333116;33;20825;-91
2023/07/19 10:36:05;;;;;;;0.32;0.32;;;;;;;33.92;60.99;99224.59;4320834;33;20111;-91
2023/07/19 10:38:31;;;;;;;3.75;0.80;;;;;;;33.77;60.98;99214.84;4320896;33;20146;-91
2023/07/19 10:41:02;;;;;;;1.33;1.15;;;;;;;33.73;60.99;99202.81;4309103;33;20115;-91
2023/07/19 10:43:29;;;;;;;0.40;0.40;;;;;;;33.57;60.97;99206.78;4332900;33;20092;-91
2023/07/19 10:45:56;;;;;;;0.70;0.62;;;;;;;33.84;60.98;99194.09;4308672;33;20151;-91
2023/07/19 10:48:28;;;;;;;0.50;0.50;;;;;;;33.83;60.98;99194.25;4332922;33;20120;-91
2023/07/19 10:51:00;;;;;;;7.53;0.68;;;;;;;33.89;60.99;99179.97;4320597;33;20174;-91
2023/07/19 10:53:26;;;;;;;0.88;0.62;;;;;;;33.92;60.99;99186.81;4320749;33;20119;-92
2023/07/19 10:55:53;;;;;;;0.90;0.32;;;;;;;34.09;60.99;99188.00;4320761;33;20096;-91
2023/07/19 10:58:18;;;;;;;0.32;0.32;;;;;;;34.09;61.00;99190.69;4320767;33;20108;-92
2023/07/19 11:00:44;;;;;;;0.32;0.32;;;;;;;34.00;61.00;99189.25;4334195;33;20095;-91
2023/07/19 11:03:14;;;;;;;0.95;0.80;;;;;;;34.17;61.00;99204.78;4322559;33;20120;-91
2023/07/19 11:05:49;;;;;;;0.40;0.40;;;;;;;34.25;61.00;99208.25;4336428;33;20437;-91
2023/07/19 11:08:24;;;;;;;0.20;0.20;;;;;;;34.39;61.01;99202.63;4323926;33;20115;-92
2023/07/19 11:10:50;;;;;;;0.10;0.10;;;;;;;34.50;61.02;99205.66;4332031;33;20071;-90
2023/07/19 11:13:16;;;;;;;0.47;0.35;;;;;;;34.56;61.02;99204.81;4348078;33;20087;-90
2023/07/19 11:15:42;;;;;;;3.62;0.90;;;;;;;34.72;61.03;99198.88;4333631;33;20729;-91
2023/07/19 11:18:08;;;;;;;2.37;0.93;;;;;;;34.94;61.05;99192.09;4321136;33;20473;-91
2023/07/19 11:20:36;;;;;;;0.40;0.40;;;;;;;35.04;61.04;99184.31;4320295;33;22659;-91
2023/07/19 11:23:05;;;;;;;0.55;0.45;;;;;;;35.30;61.05;99185.13;4320575;33;20134;-91
2023/07/19 11:25:31;;;;;;;;;;;;;;;35.30;61.06;99187.84;4333322;33;20155;-91
2023/07/19 11:27:56;;;;;;;0.35;0.35;;;;;;;35.65;61.08;99180.84;4333300;33;19988;-91
2023/07/19 11:30:23;;;;;;;0.25;0.25;;;;;;;35.87;61.07;99178.53;4313318;33;20175;-91